sensor_id;sensor_type;location;lat;lon;timestamp;P1;durP1;ratioP1;P2;durP2;ratioP2
60205;SDS011;46072;51.554;6.846;2022-11-15T00:00:50;28.13;;;13.20;;
60205;SDS011;46072;51.554;6.846;2022-11-15T00:03:18;22.85;;;11.55;;
60205;SDS011;46072;51.554;6.846;2022-11-15T00:05:46;29.30;;;13.50;;
60205;SDS011;46072;51.554;6.846;2022-11-15T00:08:13;24.70;;;11.98;;
60205;SDS011;46072;51.554;6.846;2022-11-15T00:10:39;33.30;;;13.23;;
60205;SDS011;46072;51.554;6.846;2022-11-15T00:13:10;27.23;;;13.75;;
60205;SDS011;46072;51.554;6.846;2022-11-15T00:15:38;25.95;;;13.48;;
60205;SDS011;46072;51.554;6.846;2022-11-15T00:18:05;29.77;;;13.25;;
60205;SDS011;46072;51.554;6.846;2022-11-15T00:20:35;25.42;;;12.85;;
60205;SDS011;46072;51.554;6.846;2022-11-15T00:23:02;32.30;;;13.90;;
60205;SDS011;46072;51.554;6.846;2022-11-15T00:25:29;32.47;;;12.82;;
60205;SDS011;46072;51.554;6.846;2022-11-15T00:27:56;29.88;;;13.55;;
60205;SDS011;46072;51.554;6.846;2022-11-15T00:30:23;25.13;;;12.45;;
60205;SDS011;46072;51.554;6.846;2022-11-15T00:32:50;24.92;;;12.27;;
60205;SDS011;46072;51.554;6.846;2022-11-15T00:35:17;27.20;;;11.88;;
60205;SDS011;46072;51.554;6.846;2022-11-15T00:37:44;24.42;;;11.90;;
60205;SDS011;46072;51.554;6.846;2022-11-15T00:40:12;25.48;;;13.25;;
60205;SDS011;46072;51.554;6.846;2022-11-15T00:42:39;25.65;;;12.45;;
60205;SDS011;46072;51.554;6.846;2022-11-15T00:45:06;28.63;;;12.45;;
60205;SDS011;46072;51.554;6.846;2022-11-15T00:47:33;25.70;;;12.95;;
60205;SDS011;46072;51.554;6.846;2022-11-15T00:49:59;28.85;;;13.30;;
60205;SDS011;46072;51.554;6.846;2022-11-15T00:52:26;31.38;;;13.13;;
60205;SDS011;46072;51.554;6.846;2022-11-15T00:54:52;25.23;;;12.13;;
60205;SDS011;46072;51.554;6.846;2022-11-15T00:57:18;24.02;;;12.05;;
60205;SDS011;46072;51.554;6.846;2022-11-15T00:59:45;25.42;;;12.70;;
60205;SDS011;46072;51.554;6.846;2022-11-15T01:02:20;24.40;;;11.95;;
60205;SDS011;46072;51.554;6.846;2022-11-15T01:04:47;25.30;;;11.73;;
60205;SDS011;46072;51.554;6.846;2022-11-15T01:07:13;25.17;;;12.30;;
60205;SDS011;46072;51.554;6.846;2022-11-15T01:09:40;24.13;;;12.15;;
60205;SDS011;46072;51.554;6.846;2022-11-15T01:12:06;20.42;;;11.52;;
60205;SDS011;46072;51.554;6.846;2022-11-15T01:14:33;34.88;;;12.23;;
60205;SDS011;46072;51.554;6.846;2022-11-15T01:16:59;23.55;;;12.52;;
60205;SDS011;46072;51.554;6.846;2022-11-15T01:19:26;25.88;;;12.13;;
60205;SDS011;46072;51.554;6.846;2022-11-15T01:21:52;26.17;;;12.10;;
60205;SDS011;46072;51.554;6.846;2022-11-15T01:24:19;23.20;;;11.43;;
60205;SDS011;46072;51.554;6.846;2022-11-15T01:26:45;26.65;;;10.63;;
60205;SDS011;46072;51.554;6.846;2022-11-15T01:29:12;25.15;;;11.57;;
60205;SDS011;46072;51.554;6.846;2022-11-15T01:31:38;21.92;;;10.85;;
60205;SDS011;46072;51.554;6.846;2022-11-15T01:34:04;29.70;;;12.30;;
60205;SDS011;46072;51.554;6.846;2022-11-15T01:36:31;27.95;;;11.48;;
60205;SDS011;46072;51.554;6.846;2022-11-15T01:38:57;27.55;;;11.38;;
60205;SDS011;46072;51.554;6.846;2022-11-15T01:41:26;25.38;;;11.48;;
60205;SDS011;46072;51.554;6.846;2022-11-15T01:43:55;29.15;;;12.20;;
60205;SDS011;46072;51.554;6.846;2022-11-15T01:46:30;24.02;;;11.57;;
60205;SDS011;46072;51.554;6.846;2022-11-15T01:49:01;27.02;;;12.02;;
60205;SDS011;46072;51.554;6.846;2022-11-15T01:51:30;23.83;;;10.88;;
60205;SDS011;46072;51.554;6.846;2022-11-15T01:53:59;22.10;;;10.75;;
60205;SDS011;46072;51.554;6.846;2022-11-15T01:58:56;20.95;;;10.98;;
60205;SDS011;46072;51.554;6.846;2022-11-15T02:01:23;21.50;;;10.68;;
60205;SDS011;46072;51.554;6.846;2022-11-15T02:04:01;20.52;;;11.00;;
60205;SDS011;46072;51.554;6.846;2022-11-15T02:06:32;28.45;;;10.98;;
60205;SDS011;46072;51.554;6.846;2022-11-15T02:08:58;25.60;;;11.27;;
60205;SDS011;46072;51.554;6.846;2022-11-15T02:11:25;30.67;;;13.02;;
60205;SDS011;46072;51.554;6.846;2022-11-15T02:13:52;22.33;;;11.20;;
60205;SDS011;46072;51.554;6.846;2022-11-15T02:22:22;21.98;;;10.50;;
60205;SDS011;46072;51.554;6.846;2022-11-15T02:39:35;23.48;;;10.52;;
60205;SDS011;46072;51.554;6.846;2022-11-15T02:42:10;21.98;;;10.52;;
60205;SDS011;46072;51.554;6.846;2022-11-15T02:44:58;19.77;;;9.45;;
60205;SDS011;46072;51.554;6.846;2022-11-15T02:47:27;21.38;;;11.32;;
60205;SDS011;46072;51.554;6.846;2022-11-15T02:50:07;22.48;;;10.18;;
60205;SDS011;46072;51.554;6.846;2022-11-15T02:52:35;20.52;;;11.13;;
60205;SDS011;46072;51.554;6.846;2022-11-15T02:55:01;19.30;;;10.23;;
60205;SDS011;46072;51.554;6.846;2022-11-15T03:00:17;19.77;;;10.15;;
60205;SDS011;46072;51.554;6.846;2022-11-15T03:03:01;19.52;;;11.32;;
60205;SDS011;46072;51.554;6.846;2022-11-15T03:08:57;24.52;;;10.95;;
60205;SDS011;46072;51.554;6.846;2022-11-15T03:11:32;18.92;;;9.60;;
60205;SDS011;46072;51.554;6.846;2022-11-15T03:14:16;24.33;;;10.02;;
60205;SDS011;46072;51.554;6.846;2022-11-15T03:19:32;23.27;;;9.77;;
60205;SDS011;46072;51.554;6.846;2022-11-15T03:22:07;24.08;;;11.45;;
60205;SDS011;46072;51.554;6.846;2022-11-15T03:24:37;22.02;;;10.57;;
60205;SDS011;46072;51.554;6.846;2022-11-15T03:27:05;22.83;;;11.23;;
60205;SDS011;46072;51.554;6.846;2022-11-15T03:29:34;22.50;;;9.82;;
60205;SDS011;46072;51.554;6.846;2022-11-15T03:32:05;20.88;;;9.95;;
60205;SDS011;46072;51.554;6.846;2022-11-15T03:37:13;21.83;;;11.35;;
60205;SDS011;46072;51.554;6.846;2022-11-15T03:39:41;22.08;;;10.35;;
60205;SDS011;46072;51.554;6.846;2022-11-15T03:47:30;23.02;;;11.73;;
60205;SDS011;46072;51.554;6.846;2022-11-15T03:49:59;22.55;;;11.27;;
60205;SDS011;46072;51.554;6.846;2022-11-15T03:52:31;29.10;;;11.20;;
60205;SDS011;46072;51.554;6.846;2022-11-15T03:54:58;21.25;;;9.90;;
60205;SDS011;46072;51.554;6.846;2022-11-15T03:57:26;23.75;;;11.38;;
60205;SDS011;46072;51.554;6.846;2022-11-15T03:59:53;19.27;;;10.52;;
60205;SDS011;46072;51.554;6.846;2022-11-15T04:02:19;23.08;;;11.05;;
60205;SDS011;46072;51.554;6.846;2022-11-15T04:04:46;20.30;;;10.80;;
60205;SDS011;46072;51.554;6.846;2022-11-15T04:07:12;21.20;;;10.00;;
60205;SDS011;46072;51.554;6.846;2022-11-15T04:09:39;19.42;;;9.90;;
60205;SDS011;46072;51.554;6.846;2022-11-15T04:12:24;23.42;;;10.55;;
60205;SDS011;46072;51.554;6.846;2022-11-15T04:15:04;20.52;;;9.85;;
60205;SDS011;46072;51.554;6.846;2022-11-15T04:17:49;19.13;;;9.43;;
60205;SDS011;46072;51.554;6.846;2022-11-15T04:23:12;23.25;;;10.00;;
60205;SDS011;46072;51.554;6.846;2022-11-15T04:26:01;20.52;;;10.05;;
60205;SDS011;46072;51.554;6.846;2022-11-15T04:28:33;16.27;;;9.00;;
60205;SDS011;46072;51.554;6.846;2022-11-15T04:30:59;17.48;;;9.70;;
60205;SDS011;46072;51.554;6.846;2022-11-15T04:33:26;23.73;;;10.10;;
60205;SDS011;46072;51.554;6.846;2022-11-15T04:35:52;18.73;;;9.20;;
60205;SDS011;46072;51.554;6.846;2022-11-15T04:38:37;17.95;;;9.38;;
60205;SDS011;46072;51.554;6.846;2022-11-15T04:41:04;23.98;;;9.02;;
60205;SDS011;46072;51.554;6.846;2022-11-15T04:43:30;17.27;;;8.75;;
60205;SDS011;46072;51.554;6.846;2022-11-15T04:45:57;19.63;;;9.20;;
60205;SDS011;46072;51.554;6.846;2022-11-15T04:48:24;19.55;;;9.13;;
60205;SDS011;46072;51.554;6.846;2022-11-15T04:50:50;16.80;;;9.30;;
60205;SDS011;46072;51.554;6.846;2022-11-15T04:53:17;24.13;;;9.57;;
60205;SDS011;46072;51.554;6.846;2022-11-15T04:55:46;19.58;;;8.23;;
60205;SDS011;46072;51.554;6.846;2022-11-15T04:58:13;22.60;;;8.48;;
60205;SDS011;46072;51.554;6.846;2022-11-15T05:00:39;15.90;;;8.60;;
60205;SDS011;46072;51.554;6.846;2022-11-15T05:03:06;17.67;;;9.15;;
60205;SDS011;46072;51.554;6.846;2022-11-15T05:05:50;20.42;;;10.45;;
60205;SDS011;46072;51.554;6.846;2022-11-15T05:08:17;18.77;;;9.38;;
60205;SDS011;46072;51.554;6.846;2022-11-15T05:10:44;19.48;;;9.45;;
60205;SDS011;46072;51.554;6.846;2022-11-15T05:13:10;16.88;;;7.70;;
60205;SDS011;46072;51.554;6.846;2022-11-15T05:15:37;14.88;;;7.68;;
60205;SDS011;46072;51.554;6.846;2022-11-15T05:18:03;19.55;;;9.18;;
60205;SDS011;46072;51.554;6.846;2022-11-15T05:20:30;15.40;;;7.85;;
60205;SDS011;46072;51.554;6.846;2022-11-15T05:22:56;16.60;;;8.38;;
60205;SDS011;46072;51.554;6.846;2022-11-15T05:25:23;14.90;;;8.35;;
60205;SDS011;46072;51.554;6.846;2022-11-15T05:27:49;18.20;;;7.97;;
60205;SDS011;46072;51.554;6.846;2022-11-15T05:30:16;13.32;;;6.97;;
60205;SDS011;46072;51.554;6.846;2022-11-15T05:32:43;17.88;;;8.40;;
60205;SDS011;46072;51.554;6.846;2022-11-15T05:35:12;18.25;;;9.02;;
60205;SDS011;46072;51.554;6.846;2022-11-15T05:37:42;16.58;;;7.75;;
60205;SDS011;46072;51.554;6.846;2022-11-15T05:40:09;18.45;;;8.07;;
60205;SDS011;46072;51.554;6.846;2022-11-15T05:42:35;15.13;;;6.80;;
60205;SDS011;46072;51.554;6.846;2022-11-15T05:45:02;15.75;;;7.07;;
60205;SDS011;46072;51.554;6.846;2022-11-15T05:47:30;17.98;;;7.35;;
60205;SDS011;46072;51.554;6.846;2022-11-15T05:49:57;14.85;;;7.65;;
60205;SDS011;46072;51.554;6.846;2022-11-15T05:52:25;15.88;;;7.35;;
60205;SDS011;46072;51.554;6.846;2022-11-15T05:54:54;19.40;;;7.80;;
60205;SDS011;46072;51.554;6.846;2022-11-15T05:57:21;15.10;;;7.97;;
60205;SDS011;46072;51.554;6.846;2022-11-15T05:59:48;15.25;;;8.13;;
60205;SDS011;46072;51.554;6.846;2022-11-15T06:02:14;16.30;;;8.68;;
60205;SDS011;46072;51.554;6.846;2022-11-15T06:04:41;17.55;;;8.13;;
60205;SDS011;46072;51.554;6.846;2022-11-15T06:07:07;17.65;;;8.82;;
60205;SDS011;46072;51.554;6.846;2022-11-15T06:09:34;16.75;;;8.20;;
60205;SDS011;46072;51.554;6.846;2022-11-15T06:12:00;19.00;;;8.98;;
60205;SDS011;46072;51.554;6.846;2022-11-15T06:14:27;18.52;;;9.90;;
60205;SDS011;46072;51.554;6.846;2022-11-15T06:16:54;17.05;;;9.65;;
60205;SDS011;46072;51.554;6.846;2022-11-15T06:19:20;17.95;;;9.70;;
60205;SDS011;46072;51.554;6.846;2022-11-15T06:21:47;17.15;;;7.97;;
60205;SDS011;46072;51.554;6.846;2022-11-15T06:24:13;19.38;;;10.02;;
60205;SDS011;46072;51.554;6.846;2022-11-15T06:26:40;20.35;;;10.27;;
60205;SDS011;46072;51.554;6.846;2022-11-15T06:29:06;25.42;;;10.10;;
60205;SDS011;46072;51.554;6.846;2022-11-15T06:31:33;22.77;;;11.07;;
60205;SDS011;46072;51.554;6.846;2022-11-15T06:34:00;23.05;;;9.95;;
60205;SDS011;46072;51.554;6.846;2022-11-15T06:36:27;20.60;;;10.07;;
60205;SDS011;46072;51.554;6.846;2022-11-15T06:38:53;20.38;;;10.00;;
60205;SDS011;46072;51.554;6.846;2022-11-15T06:41:19;21.60;;;9.95;;
60205;SDS011;46072;51.554;6.846;2022-11-15T06:43:47;19.42;;;10.65;;
60205;SDS011;46072;51.554;6.846;2022-11-15T06:46:13;22.95;;;10.48;;
60205;SDS011;46072;51.554;6.846;2022-11-15T06:48:40;19.20;;;10.10;;
60205;SDS011;46072;51.554;6.846;2022-11-15T06:51:06;24.05;;;9.40;;
60205;SDS011;46072;51.554;6.846;2022-11-15T06:53:34;23.92;;;10.45;;
60205;SDS011;46072;51.554;6.846;2022-11-15T06:56:01;23.05;;;9.75;;
60205;SDS011;46072;51.554;6.846;2022-11-15T06:58:29;22.15;;;10.57;;
60205;SDS011;46072;51.554;6.846;2022-11-15T07:01:07;18.92;;;9.90;;
60205;SDS011;46072;51.554;6.846;2022-11-15T07:03:35;21.25;;;10.05;;
60205;SDS011;46072;51.554;6.846;2022-11-15T07:06:03;19.00;;;9.20;;
60205;SDS011;46072;51.554;6.846;2022-11-15T07:08:33;20.92;;;9.52;;
60205;SDS011;46072;51.554;6.846;2022-11-15T07:11:00;20.13;;;9.43;;
60205;SDS011;46072;51.554;6.846;2022-11-15T07:13:28;22.58;;;8.98;;
60205;SDS011;46072;51.554;6.846;2022-11-15T07:16:04;15.73;;;7.57;;
60205;SDS011;46072;51.554;6.846;2022-11-15T07:18:33;20.52;;;8.57;;
60205;SDS011;46072;51.554;6.846;2022-11-15T07:21:01;18.38;;;7.72;;
60205;SDS011;46072;51.554;6.846;2022-11-15T07:23:29;16.33;;;7.18;;
60205;SDS011;46072;51.554;6.846;2022-11-15T07:25:56;15.65;;;7.30;;
60205;SDS011;46072;51.554;6.846;2022-11-15T07:28:25;16.15;;;7.70;;
60205;SDS011;46072;51.554;6.846;2022-11-15T07:30:52;15.85;;;7.85;;
60205;SDS011;46072;51.554;6.846;2022-11-15T07:33:18;20.35;;;8.18;;
60205;SDS011;46072;51.554;6.846;2022-11-15T07:35:45;16.98;;;7.82;;
60205;SDS011;46072;51.554;6.846;2022-11-15T07:38:14;16.15;;;8.02;;
60205;SDS011;46072;51.554;6.846;2022-11-15T07:40:46;16.30;;;7.63;;
60205;SDS011;46072;51.554;6.846;2022-11-15T07:43:13;15.05;;;7.28;;
60205;SDS011;46072;51.554;6.846;2022-11-15T07:45:43;14.45;;;7.07;;
60205;SDS011;46072;51.554;6.846;2022-11-15T07:48:11;13.77;;;6.95;;
60205;SDS011;46072;51.554;6.846;2022-11-15T07:50:40;14.65;;;7.22;;
60205;SDS011;46072;51.554;6.846;2022-11-15T07:53:08;11.75;;;6.40;;
60205;SDS011;46072;51.554;6.846;2022-11-15T07:55:35;11.95;;;5.63;;
60205;SDS011;46072;51.554;6.846;2022-11-15T07:58:05;11.88;;;5.22;;
60205;SDS011;46072;51.554;6.846;2022-11-15T08:00:33;11.07;;;5.22;;
60205;SDS011;46072;51.554;6.846;2022-11-15T08:03:01;10.93;;;5.20;;
60205;SDS011;46072;51.554;6.846;2022-11-15T08:05:31;10.60;;;4.90;;
60205;SDS011;46072;51.554;6.846;2022-11-15T08:07:58;14.35;;;5.45;;
60205;SDS011;46072;51.554;6.846;2022-11-15T08:10:25;13.35;;;5.70;;
60205;SDS011;46072;51.554;6.846;2022-11-15T08:13:05;12.40;;;5.32;;
60205;SDS011;46072;51.554;6.846;2022-11-15T08:15:33;10.95;;;6.32;;
60205;SDS011;46072;51.554;6.846;2022-11-15T08:18:02;15.38;;;5.47;;
60205;SDS011;46072;51.554;6.846;2022-11-15T08:20:29;11.25;;;5.80;;
60205;SDS011;46072;51.554;6.846;2022-11-15T08:22:57;9.85;;;4.45;;
60205;SDS011;46072;51.554;6.846;2022-11-15T08:25:27;10.65;;;3.60;;
60205;SDS011;46072;51.554;6.846;2022-11-15T08:27:55;9.35;;;4.03;;
60205;SDS011;46072;51.554;6.846;2022-11-15T08:30:24;14.00;;;3.63;;
60205;SDS011;46072;51.554;6.846;2022-11-15T08:32:51;7.55;;;3.58;;
60205;SDS011;46072;51.554;6.846;2022-11-15T08:35:19;13.13;;;2.72;;
60205;SDS011;46072;51.554;6.846;2022-11-15T08:37:53;7.75;;;3.45;;
60205;SDS011;46072;51.554;6.846;2022-11-15T08:40:20;14.15;;;3.15;;
60205;SDS011;46072;51.554;6.846;2022-11-15T08:42:47;9.27;;;3.05;;
60205;SDS011;46072;51.554;6.846;2022-11-15T08:45:13;9.60;;;2.80;;
60205;SDS011;46072;51.554;6.846;2022-11-15T08:47:40;7.20;;;2.80;;
60205;SDS011;46072;51.554;6.846;2022-11-15T08:50:07;18.10;;;2.95;;
60205;SDS011;46072;51.554;6.846;2022-11-15T08:52:34;4.93;;;2.65;;
60205;SDS011;46072;51.554;6.846;2022-11-15T08:55:01;6.65;;;2.78;;
60205;SDS011;46072;51.554;6.846;2022-11-15T08:57:29;8.85;;;3.22;;
60205;SDS011;46072;51.554;6.846;2022-11-15T08:59:56;13.10;;;3.60;;
60205;SDS011;46072;51.554;6.846;2022-11-15T09:02:23;10.02;;;3.20;;
60205;SDS011;46072;51.554;6.846;2022-11-15T09:04:49;8.80;;;3.30;;
60205;SDS011;46072;51.554;6.846;2022-11-15T09:07:16;10.13;;;3.47;;
60205;SDS011;46072;51.554;6.846;2022-11-15T09:09:42;9.05;;;4.03;;
60205;SDS011;46072;51.554;6.846;2022-11-15T09:12:09;12.25;;;5.03;;
60205;SDS011;46072;51.554;6.846;2022-11-15T09:14:35;8.48;;;4.10;;
60205;SDS011;46072;51.554;6.846;2022-11-15T09:17:02;9.98;;;5.40;;
60205;SDS011;46072;51.554;6.846;2022-11-15T09:19:29;18.85;;;6.03;;
60205;SDS011;46072;51.554;6.846;2022-11-15T09:21:55;19.10;;;6.55;;
60205;SDS011;46072;51.554;6.846;2022-11-15T09:24:21;19.02;;;6.85;;
60205;SDS011;46072;51.554;6.846;2022-11-15T09:26:49;22.67;;;7.75;;
60205;SDS011;46072;51.554;6.846;2022-11-15T09:29:17;19.83;;;9.30;;
60205;SDS011;46072;51.554;6.846;2022-11-15T09:31:44;15.80;;;7.40;;
60205;SDS011;46072;51.554;6.846;2022-11-15T09:34:11;20.05;;;8.07;;
60205;SDS011;46072;51.554;6.846;2022-11-15T09:36:37;22.98;;;7.80;;
60205;SDS011;46072;51.554;6.846;2022-11-15T09:39:07;20.52;;;6.55;;
60205;SDS011;46072;51.554;6.846;2022-11-15T09:49:23;16.98;;;6.50;;
60205;SDS011;46072;51.554;6.846;2022-11-15T09:51:50;16.55;;;6.22;;
60205;SDS011;46072;51.554;6.846;2022-11-15T10:03:07;12.32;;;5.05;;
60205;SDS011;46072;51.554;6.846;2022-11-15T10:05:40;9.88;;;4.70;;
60205;SDS011;46072;51.554;6.846;2022-11-15T10:10:47;11.43;;;4.70;;
60205;SDS011;46072;51.554;6.846;2022-11-15T10:13:35;13.27;;;5.15;;
60205;SDS011;46072;51.554;6.846;2022-11-15T10:24:24;8.90;;;3.40;;
60205;SDS011;46072;51.554;6.846;2022-11-15T10:26:54;9.57;;;3.95;;
60205;SDS011;46072;51.554;6.846;2022-11-15T10:29:22;7.45;;;3.63;;
60205;SDS011;46072;51.554;6.846;2022-11-15T10:31:52;10.25;;;4.22;;
60205;SDS011;46072;51.554;6.846;2022-11-15T10:34:20;7.40;;;2.83;;
60205;SDS011;46072;51.554;6.846;2022-11-15T10:37:00;9.73;;;3.28;;
60205;SDS011;46072;51.554;6.846;2022-11-15T10:39:30;9.55;;;3.00;;
60205;SDS011;46072;51.554;6.846;2022-11-15T10:41:56;8.23;;;2.83;;
60205;SDS011;46072;51.554;6.846;2022-11-15T10:44:26;9.73;;;3.92;;
60205;SDS011;46072;51.554;6.846;2022-11-15T10:51:53;8.45;;;4.03;;
60205;SDS011;46072;51.554;6.846;2022-11-15T10:54:23;8.75;;;3.38;;
60205;SDS011;46072;51.554;6.846;2022-11-15T10:56:52;9.88;;;3.58;;
60205;SDS011;46072;51.554;6.846;2022-11-15T10:59:24;11.48;;;3.85;;
60205;SDS011;46072;51.554;6.846;2022-11-15T11:01:53;6.90;;;3.00;;
60205;SDS011;46072;51.554;6.846;2022-11-15T11:04:20;6.45;;;3.15;;
60205;SDS011;46072;51.554;6.846;2022-11-15T11:11:55;6.45;;;2.67;;
60205;SDS011;46072;51.554;6.846;2022-11-15T11:14:23;5.47;;;2.53;;
60205;SDS011;46072;51.554;6.846;2022-11-15T11:30:52;6.95;;;2.80;;
60205;SDS011;46072;51.554;6.846;2022-11-15T11:33:30;6.43;;;2.83;;
60205;SDS011;46072;51.554;6.846;2022-11-15T11:36:14;5.03;;;2.80;;
60205;SDS011;46072;51.554;6.846;2022-11-15T11:41:50;8.13;;;2.05;;
60205;SDS011;46072;51.554;6.846;2022-11-15T11:44:30;4.20;;;2.20;;
60205;SDS011;46072;51.554;6.846;2022-11-15T11:47:10;5.22;;;1.98;;
60205;SDS011;46072;51.554;6.846;2022-11-15T11:52:14;7.38;;;2.05;;
60205;SDS011;46072;51.554;6.846;2022-11-15T11:57:55;4.47;;;1.90;;
60205;SDS011;46072;51.554;6.846;2022-11-15T12:00:41;5.57;;;1.90;;
60205;SDS011;46072;51.554;6.846;2022-11-15T12:06:20;4.20;;;2.00;;
60205;SDS011;46072;51.554;6.846;2022-11-15T12:08:52;4.68;;;1.60;;
60205;SDS011;46072;51.554;6.846;2022-11-15T12:11:22;3.80;;;2.08;;
60205;SDS011;46072;51.554;6.846;2022-11-15T12:13:58;5.43;;;2.00;;
60205;SDS011;46072;51.554;6.846;2022-11-15T12:16:27;7.75;;;2.10;;
60205;SDS011;46072;51.554;6.846;2022-11-15T12:18:56;7.70;;;1.98;;
60205;SDS011;46072;51.554;6.846;2022-11-15T12:24:05;10.95;;;2.00;;
60205;SDS011;46072;51.554;6.846;2022-11-15T12:26:40;4.00;;;1.73;;
60205;SDS011;46072;51.554;6.846;2022-11-15T12:29:41;9.50;;;1.83;;
60205;SDS011;46072;51.554;6.846;2022-11-15T12:32:30;6.25;;;1.80;;
60205;SDS011;46072;51.554;6.846;2022-11-15T12:34:59;7.78;;;1.80;;
60205;SDS011;46072;51.554;6.846;2022-11-15T12:42:40;7.43;;;2.00;;
60205;SDS011;46072;51.554;6.846;2022-11-15T12:58:43;5.55;;;1.67;;
60205;SDS011;46072;51.554;6.846;2022-11-15T13:04:30;3.30;;;1.20;;
60205;SDS011;46072;51.554;6.846;2022-11-15T13:06:53;2.65;;;1.52;;
60205;SDS011;46072;51.554;6.846;2022-11-15T13:12:00;4.65;;;1.65;;
60205;SDS011;46072;51.554;6.846;2022-11-15T13:17:22;6.60;;;2.67;;
60205;SDS011;46072;51.554;6.846;2022-11-15T13:22:37;4.68;;;1.40;;
60205;SDS011;46072;51.554;6.846;2022-11-15T13:28:10;4.22;;;1.45;;
60205;SDS011;46072;51.554;6.846;2022-11-15T13:33:16;3.35;;;1.70;;
60205;SDS011;46072;51.554;6.846;2022-11-15T13:35:46;4.80;;;1.73;;
60205;SDS011;46072;51.554;6.846;2022-11-15T13:38:33;2.47;;;1.40;;
60205;SDS011;46072;51.554;6.846;2022-11-15T13:41:18;4.40;;;1.63;;
60205;SDS011;46072;51.554;6.846;2022-11-15T13:43:48;5.55;;;1.60;;
60205;SDS011;46072;51.554;6.846;2022-11-15T13:46:17;5.55;;;1.80;;
60205;SDS011;46072;51.554;6.846;2022-11-15T13:48:45;3.42;;;1.50;;
60205;SDS011;46072;51.554;6.846;2022-11-15T13:51:21;2.60;;;1.40;;
60205;SDS011;46072;51.554;6.846;2022-11-15T13:53:51;3.35;;;1.55;;
60205;SDS011;46072;51.554;6.846;2022-11-15T13:56:21;8.15;;;1.83;;
60205;SDS011;46072;51.554;6.846;2022-11-15T13:58:47;6.20;;;1.90;;
60205;SDS011;46072;51.554;6.846;2022-11-15T14:01:15;5.75;;;1.73;;
60205;SDS011;46072;51.554;6.846;2022-11-15T14:03:53;3.60;;;1.63;;
60205;SDS011;46072;51.554;6.846;2022-11-15T14:06:22;5.32;;;2.00;;
60205;SDS011;46072;51.554;6.846;2022-11-15T14:11:23;4.53;;;1.80;;
60205;SDS011;46072;51.554;6.846;2022-11-15T14:16:35;3.10;;;1.60;;
60205;SDS011;46072;51.554;6.846;2022-11-15T14:19:04;4.68;;;1.80;;
60205;SDS011;46072;51.554;6.846;2022-11-15T14:21:31;6.68;;;1.55;;
60205;SDS011;46072;51.554;6.846;2022-11-15T14:24:17;5.03;;;1.75;;
60205;SDS011;46072;51.554;6.846;2022-11-15T14:26:47;11.63;;;2.40;;
60205;SDS011;46072;51.554;6.846;2022-11-15T14:29:27;4.75;;;1.75;;
60205;SDS011;46072;51.554;6.846;2022-11-15T14:32:12;4.93;;;2.10;;
60205;SDS011;46072;51.554;6.846;2022-11-15T14:34:40;7.85;;;2.30;;
60205;SDS011;46072;51.554;6.846;2022-11-15T14:37:52;10.10;;;2.95;;
60205;SDS011;46072;51.554;6.846;2022-11-15T14:39:54;6.32;;;2.05;;
60205;SDS011;46072;51.554;6.846;2022-11-15T14:42:21;7.00;;;2.25;;
60205;SDS011;46072;51.554;6.846;2022-11-15T14:44:48;5.85;;;1.92;;
60205;SDS011;46072;51.554;6.846;2022-11-15T14:47:15;4.03;;;1.92;;
60205;SDS011;46072;51.554;6.846;2022-11-15T14:49:42;5.57;;;2.10;;
60205;SDS011;46072;51.554;6.846;2022-11-15T14:52:42;7.03;;;2.13;;
60205;SDS011;46072;51.554;6.846;2022-11-15T14:55:03;4.85;;;1.80;;
60205;SDS011;46072;51.554;6.846;2022-11-15T14:57:36;5.78;;;1.88;;
60205;SDS011;46072;51.554;6.846;2022-11-15T15:00:03;6.30;;;2.22;;
60205;SDS011;46072;51.554;6.846;2022-11-15T15:02:30;7.40;;;2.40;;
60205;SDS011;46072;51.554;6.846;2022-11-15T15:04:57;7.78;;;2.42;;
60205;SDS011;46072;51.554;6.846;2022-11-15T15:07:27;6.25;;;2.10;;
60205;SDS011;46072;51.554;6.846;2022-11-15T15:09:53;8.05;;;2.35;;
60205;SDS011;46072;51.554;6.846;2022-11-15T15:12:40;7.85;;;1.90;;
60205;SDS011;46072;51.554;6.846;2022-11-15T15:15:11;5.88;;;2.30;;
60205;SDS011;46072;51.554;6.846;2022-11-15T15:17:41;9.75;;;3.05;;
60205;SDS011;46072;51.554;6.846;2022-11-15T15:20:08;14.32;;;3.03;;
60205;SDS011;46072;51.554;6.846;2022-11-15T15:22:35;7.55;;;2.88;;
60205;SDS011;46072;51.554;6.846;2022-11-15T15:25:02;5.97;;;3.03;;
60205;SDS011;46072;51.554;6.846;2022-11-15T15:27:30;7.43;;;2.95;;
60205;SDS011;46072;51.554;6.846;2022-11-15T15:29:57;5.07;;;2.55;;
60205;SDS011;46072;51.554;6.846;2022-11-15T15:32:23;5.13;;;2.70;;
60205;SDS011;46072;51.554;6.846;2022-11-15T15:34:49;11.00;;;2.67;;
60205;SDS011;46072;51.554;6.846;2022-11-15T15:37:25;11.98;;;3.08;;
60205;SDS011;46072;51.554;6.846;2022-11-15T15:39:56;8.50;;;3.22;;
60205;SDS011;46072;51.554;6.846;2022-11-15T15:42:22;7.93;;;3.05;;
60205;SDS011;46072;51.554;6.846;2022-11-15T15:44:49;8.32;;;3.15;;
60205;SDS011;46072;51.554;6.846;2022-11-15T15:47:20;6.18;;;2.97;;
60205;SDS011;46072;51.554;6.846;2022-11-15T15:49:49;8.27;;;3.40;;
60205;SDS011;46072;51.554;6.846;2022-11-15T15:52:16;9.27;;;3.33;;
60205;SDS011;46072;51.554;6.846;2022-11-15T15:54:42;8.85;;;2.80;;
60205;SDS011;46072;51.554;6.846;2022-11-15T15:57:11;7.10;;;3.20;;
60205;SDS011;46072;51.554;6.846;2022-11-15T15:59:38;8.45;;;3.70;;
60205;SDS011;46072;51.554;6.846;2022-11-15T16:02:05;7.60;;;3.10;;
60205;SDS011;46072;51.554;6.846;2022-11-15T16:04:31;7.25;;;3.65;;
60205;SDS011;46072;51.554;6.846;2022-11-15T16:06:58;6.32;;;3.20;;
60205;SDS011;46072;51.554;6.846;2022-11-15T16:09:25;8.27;;;3.28;;
60205;SDS011;46072;51.554;6.846;2022-11-15T16:12:11;11.63;;;4.50;;
60205;SDS011;46072;51.554;6.846;2022-11-15T16:14:40;9.27;;;3.60;;
60205;SDS011;46072;51.554;6.846;2022-11-15T16:17:09;12.60;;;3.90;;
60205;SDS011;46072;51.554;6.846;2022-11-15T16:19:41;5.45;;;3.20;;
60205;SDS011;46072;51.554;6.846;2022-11-15T16:22:11;8.15;;;3.40;;
60205;SDS011;46072;51.554;6.846;2022-11-15T16:24:38;9.52;;;3.70;;
60205;SDS011;46072;51.554;6.846;2022-11-15T16:27:10;6.38;;;2.88;;
60205;SDS011;46072;51.554;6.846;2022-11-15T16:29:42;10.13;;;3.97;;
60205;SDS011;46072;51.554;6.846;2022-11-15T16:32:12;9.43;;;4.15;;
60205;SDS011;46072;51.554;6.846;2022-11-15T16:34:39;7.55;;;3.70;;
60205;SDS011;46072;51.554;6.846;2022-11-15T16:37:19;12.73;;;3.63;;
60205;SDS011;46072;51.554;6.846;2022-11-15T16:39:49;10.02;;;3.53;;
60205;SDS011;46072;51.554;6.846;2022-11-15T16:42:15;10.75;;;4.22;;
60205;SDS011;46072;51.554;6.846;2022-11-15T16:44:42;9.52;;;4.28;;
60205;SDS011;46072;51.554;6.846;2022-11-15T16:47:19;11.32;;;4.65;;
60205;SDS011;46072;51.554;6.846;2022-11-15T16:49:45;9.02;;;4.13;;
60205;SDS011;46072;51.554;6.846;2022-11-15T16:52:12;11.32;;;4.63;;
60205;SDS011;46072;51.554;6.846;2022-11-15T16:54:46;8.82;;;4.38;;
60205;SDS011;46072;51.554;6.846;2022-11-15T16:57:12;10.30;;;5.15;;
60205;SDS011;46072;51.554;6.846;2022-11-15T16:59:38;13.77;;;5.18;;
60205;SDS011;46072;51.554;6.846;2022-11-15T17:02:09;10.63;;;4.30;;
60205;SDS011;46072;51.554;6.846;2022-11-15T17:04:37;8.63;;;4.25;;
60205;SDS011;46072;51.554;6.846;2022-11-15T17:07:03;10.85;;;4.30;;
60205;SDS011;46072;51.554;6.846;2022-11-15T17:09:30;10.40;;;4.25;;
60205;SDS011;46072;51.554;6.846;2022-11-15T17:11:58;9.90;;;4.50;;
60205;SDS011;46072;51.554;6.846;2022-11-15T17:14:24;11.50;;;4.60;;
60205;SDS011;46072;51.554;6.846;2022-11-15T17:16:50;13.48;;;5.53;;
60205;SDS011;46072;51.554;6.846;2022-11-15T17:19:18;11.23;;;4.75;;